Pagrindinis puslapis
METAR-TAF:

METAR-TAF

Oro uostai :

Roma, Italija

platuma: 41-57N, ilguma: 012-30E, Aukštis: 18 m

Dabartinis oras

Ataskaita buvo paskelbta 8 valandos ir 26 minutes, ne 17:50 UTC
Vėjas 11 kt iš Pietvakarių, svyruoja nuo Pietų/Pietvakarių ir Vakarų
Temperatūra 28°C
Drėgmė 62%
Slėgis 1005 hPa
Matomumas 10 km arba daugiau
Mažai debesys ne aukštis 3500 ft

METAR: LIRU 031750Z 22011KT 200V260 9999 FEW035 28/20 Q1005

Laikas: 04:16 (02:16 UTC)

Prognozė

Ataskaita buvo paskelbta 12 valandos ir 16 minutes, ne 14:00 UTC
Prognozė galioja nuo 03 metu 15 UTC su 03 metu 24 UTC
Vėjas 16 kt iš Pietvakarių
Matomumas 10 km arba daugiau
nėra debesų žemiau 1500 m ir nėra kamuolinių lietaus debesų

TAF: LIRU 031400Z 0315/0324 23016KT CAVOK

Orai ataskaitas ir orų prognozės (METAR, TAF).

turimą stotys yra geltonos ir raudonos taškus žemėlapyje.

Perkelti pele per norėdami pamatyti stoties vardą.

Tada spustelėkite, norėdami matyti oro stebėjimo ir prognozės.

Norėdami pakeisti žemėlapį: spustelėkite ant žalios mygtukų su juodo kryžiaus žemyn,; žalią mygtuką su brūkšneliu, jei norite nutolinti; arba žalių rodyklių gretimoms žemėlapius.


METAR-TAF: